Isla Saona, Dominican Republic
Current Conditions -  °F | °C
As of 4:00 PM on Tuesday 21 Oct 2014 (Local Time) from MDPC Reporting Station
Few Clouds Few Clouds  
Wind Chill: 30°   Ceiling: Unl
Heat Index: 34°   Visibility: 6mi
Dew Point: 23°   Wind: 8mph
Humidity: 66%   Direction: 140°SE
Pressure: 29.88"   Gusts: NA
Location:  18.09°N, 67.89°W
Report Text: MDPC 212000Z 14007KT 9999 FEW026 30/23 Q1012 NOSIG
Loading
Personal Weather Stations






























Interactive Weather Map New forecast layout! Learn more

10-Day Weather Forecast

Advertisements
Track Severe Weather on mobile